Time;durP1;ratioP1;P1;durP2;ratioP2;P2;SDS_P1;SDS_P2;PMS_P1;PMS_P2;Temp;Humidity;BMP_temperature;BMP_pressure;BME280_temperature;BME280_humidity;BME280_pressure;Samples;Min_cycle;Max_cycle;Signal;HPM_P1;HPM_P2
2023/05/20 00:03:19;;;;;;;10.10;9.80;;;10.90;99.90;;;;;;2611474;39;20510;-72
2023/05/20 00:13:06;;;;;;;10.00;9.70;;;11.00;99.90;;;;;;2611245;54;20383;-71
2023/05/20 00:18:55;;;;;;;9.70;9.40;;;11.10;99.90;;;;;;2610457;54;20394;-72
2023/05/20 00:24:43;;;;;;;9.67;9.37;;;11.20;99.90;;;;;;2609672;54;20427;-72
2023/05/20 00:30:31;;;;;;;9.67;9.37;;;11.20;99.90;;;;;;2611365;54;20945;-71
2023/05/20 00:36:18;;;;;;;9.53;9.17;;;11.20;99.90;;;;;;2610952;54;20173;-71
2023/05/20 00:42:06;;;;;;;9.57;9.27;;;11.00;99.90;;;;;;2611453;54;20130;-71
2023/05/20 00:47:58;;;;;;;9.73;9.43;;;10.90;99.90;;;;;;2611824;54;20245;-72
2023/05/20 00:53:46;;;;;;;10.30;9.90;;;11.00;99.90;;;;;;2613242;54;20396;-73
2023/05/20 00:59:35;;;;;;;9.80;9.50;;;11.10;99.90;;;;;;2612987;54;20400;-71
2023/05/20 01:05:23;;;;;;;9.63;9.33;;;11.20;99.90;;;;;;2613370;54;20391;-72
2023/05/20 01:08:39;;;;;;;9.93;9.63;;;11.40;99.90;;;;;;2613306;47;20452;-71
2023/05/20 01:11:14;;;;;;;9.40;9.10;;;11.30;99.90;;;;;;2614443;54;20466;-71
2023/05/20 01:17:08;;;;;;;9.50;9.20;;;11.30;99.90;;;;;;2614048;46;20574;-72
2023/05/20 01:22:56;;;;;;;9.60;9.30;;;11.20;99.90;;;;;;2612868;54;20403;-71
2023/05/20 01:28:43;;;;;;;10.43;9.83;;;11.10;99.90;;;;;;2610712;54;20400;-71
2023/05/20 01:34:34;;;;;;;9.37;9.07;;;10.90;99.90;;;;;;2611144;54;20656;-72
2023/05/20 01:40:22;;;;;;;9.40;9.10;;;10.80;99.90;;;;;;2611076;54;20483;-72
2023/05/20 01:46:10;;;;;;;9.30;9.00;;;10.70;99.90;;;;;;2611189;54;20394;-70
2023/05/20 01:51:58;;;;;;;9.10;8.80;;;10.60;99.90;;;;;;2610778;54;20134;-72
2023/05/20 01:57:46;;;;;;;8.80;8.50;;;10.40;99.90;;;;;;2610303;54;20391;-71
2023/05/20 02:00:49;;;;;;;8.60;8.30;;;10.50;99.90;;;;;;2609853;54;20976;-71
2023/05/20 02:03:15;;;;;;;9.10;8.80;;;10.50;99.90;;;;;;2610630;54;20198;-72
2023/05/20 02:13:08;;;;;;;9.07;8.77;;;10.40;99.90;;;;;;2610419;54;20546;-71
2023/05/20 02:18:57;;;;;;;8.17;7.87;;;10.10;99.90;;;;;;2609843;54;20366;-71
2023/05/20 02:24:45;;;;;;;8.03;7.73;;;9.80;99.90;;;;;;2609896;54;20421;-71
2023/05/20 02:30:32;;;;;;;9.03;8.33;;;9.60;99.90;;;;;;2610333;54;20130;-71
2023/05/20 02:36:20;;;;;;;7.33;7.10;;;9.80;99.90;;;;;;2608991;54;20166;-71
2023/05/20 02:42:08;;;;;;;7.80;7.50;;;9.80;99.90;;;;;;2610856;54;20171;-71
2023/05/20 02:47:56;;;;;;;7.67;7.37;;;10.00;99.90;;;;;;2610345;54;20134;-72
2023/05/20 02:53:44;;;;;;;7.40;7.10;;;9.80;99.90;;;;;;2607897;54;20429;-71
2023/05/20 02:59:32;;;;;;;6.87;6.67;;;9.70;99.90;;;;;;2612724;54;20960;-71
2023/05/20 03:05:21;;;;;;;7.17;6.97;;;9.80;99.90;;;;;;2609475;54;20254;-71
2023/05/20 03:08:39;;;;;;;7.90;7.60;;;9.90;99.90;;;;;;2610311;54;21410;-70
2023/05/20 03:11:04;;;;;;;6.67;6.47;;;10.00;99.90;;;;;;2609725;54;21008;-70
2023/05/20 03:16:54;;;;;;;6.50;6.30;;;10.10;99.90;;;;;;2610245;54;20134;-71
2023/05/20 03:22:42;;;;;;;7.00;6.80;;;10.10;99.90;;;;;;2610883;54;20403;-69
2023/05/20 03:28:30;;;;;;;7.43;7.17;;;10.30;99.90;;;;;;2609320;54;20134;-70
2023/05/20 03:34:18;;;;;;;7.60;7.30;;;10.10;99.90;;;;;;2610789;54;20166;-69
2023/05/20 03:40:09;;;;;;;7.90;7.50;;;10.10;99.90;;;;;;2610577;54;20133;-70
2023/05/20 03:45:56;;;;;;;7.47;7.20;;;10.20;99.90;;;;;;2609862;46;20398;-70
2023/05/20 03:51:44;;;;;;;7.83;7.53;;;10.20;99.90;;;;;;2610693;54;20161;-70
2023/05/20 03:57:32;;;;;;;8.00;7.70;;;10.30;99.90;;;;;;2611101;54;20242;-69
2023/05/20 04:03:21;;;;;;;7.37;7.07;;;10.30;99.90;;;;;;2610882;54;20383;-70
2023/05/20 04:13:11;;;;;;;7.80;7.50;;;10.60;99.90;;;;;;2610352;54;20947;-70
2023/05/20 04:18:59;;;;;;;7.43;7.13;;;10.70;99.90;;;;;;2610310;39;20767;-70
2023/05/20 04:24:47;;;;;;;9.23;8.83;;;10.80;99.90;;;;;;2610828;54;20415;-69
2023/05/20 04:30:35;;;;;;;7.53;7.23;;;11.00;99.90;;;;;;2609824;54;20496;-70
2023/05/20 04:36:27;;;;;;;10.10;9.27;;;11.10;99.90;;;;;;2610705;54;20130;-71
2023/05/20 04:42:17;;;;;;;8.13;7.83;;;11.20;99.90;;;;;;2610032;54;20422;-71
2023/05/20 04:48:05;;;;;;;36.40;28.07;;;11.50;99.90;;;;;;2611638;54;20374;-71
2023/05/20 04:53:53;;;;;;;8.40;8.10;;;11.80;99.90;;;;;;2609140;54;20937;-72
2023/05/20 04:59:41;;;;;;;8.53;8.23;;;12.20;99.90;;;;;;2610075;54;20314;-70
2023/05/20 05:05:29;;;;;;;10.13;9.70;;;12.40;99.90;;;;;;2611113;54;20149;-70
2023/05/20 05:08:39;;;;;;;8.80;8.50;;;12.50;99.90;;;;;;2610801;46;20402;-70
2023/05/20 05:11:05;;;;;;;8.73;8.43;;;12.70;99.90;;;;;;2611512;54;20155;-69
2023/05/20 05:16:53;;;;;;;9.93;9.53;;;13.10;99.90;;;;;;2611452;39;20795;-71
2023/05/20 05:22:41;;;;;;;17.50;16.07;;;13.60;99.90;;;;;;2610348;54;20274;-71
2023/05/20 05:28:29;;;;;;;13.83;12.80;;;13.60;99.90;;;;;;2610774;54;20956;-71
2023/05/20 05:34:17;;;;;;;9.70;9.30;;;13.60;99.90;;;;;;2610869;54;20130;-71
2023/05/20 05:40:07;;;;;;;13.03;12.07;;;14.10;99.90;;;;;;2610681;54;20672;-71
2023/05/20 05:45:54;;;;;;;10.00;9.50;;;14.30;99.90;;;;;;2610427;39;20773;-71
2023/05/20 05:51:42;;;;;;;11.57;11.00;;;14.90;99.90;;;;;;2609069;54;20134;-71
2023/05/20 05:57:31;;;;;;;11.20;10.80;;;14.90;99.90;;;;;;2607036;54;20185;-73
2023/05/20 06:03:19;;;;;;;11.30;10.90;;;15.50;99.90;;;;;;2608412;54;20374;-71
2023/05/20 06:13:10;;;;;;;11.80;11.30;;;15.90;97.60;;;;;;2613972;54;20386;-71
2023/05/20 06:18:57;;;;;;;12.30;11.80;;;15.20;99.90;;;;;;2612943;54;20944;-71
2023/05/20 06:24:45;;;;;;;16.17;15.10;;;15.90;93.10;;;;;;2611277;39;20513;-72
2023/05/20 06:30:33;;;;;;;15.70;13.47;;;16.40;77.40;;;;;;2606900;54;20134;-71
2023/05/20 06:36:21;;;;;;;14.57;13.77;;;15.50;90.90;;;;;;2612493;54;20133;-71
2023/05/20 06:42:08;;;;;;;12.80;12.23;;;14.80;99.90;;;;;;2611585;54;20126;-72
2023/05/20 06:47:56;;;;;;;13.87;13.07;;;15.00;99.90;;;;;;2612335;39;20500;-72
2023/05/20 06:53:44;;;;;;;13.83;13.13;;;15.10;99.90;;;;;;2611026;54;21133;-74
2023/05/20 06:59:32;;;;;;;11.87;11.47;;;15.30;99.90;;;;;;2612331;54;20149;-73
2023/05/20 07:05:20;;;;;;;13.10;12.50;;;15.70;98.60;;;;;;2608795;54;20298;-72
2023/05/20 07:11:23;;;;;;;14.10;13.47;;;15.70;95.70;;;;;;2614283;39;20554;-72
2023/05/20 07:17:11;;;;;;;11.90;11.40;;;15.80;90.40;;;;;;2613573;54;20687;-72
2023/05/20 07:23:00;;;;;;;14.10;13.30;;;15.50;92.50;;;;;;2613611;54;20414;-71
2023/05/20 07:28:47;;;;;;;12.90;12.30;;;15.80;93.60;;;;;;2612972;46;20409;-71
2023/05/20 07:34:34;;;;;;;12.60;12.07;;;15.50;97.60;;;;;;2612436;54;20154;-71
2023/05/20 07:40:24;;;;;;;14.17;13.43;;;15.70;96.00;;;;;;2613453;54;20213;-72
2023/05/20 07:46:12;;;;;;;31.77;14.37;;;15.50;93.80;;;;;;2613135;46;20883;-72
2023/05/20 07:52:00;;;;;;;12.57;11.97;;;15.60;95.70;;;;;;2612708;54;20146;-75
2023/05/20 07:57:48;;;;;;;16.30;12.70;;;15.50;91.60;;;;;;2614527;54;20166;-72
2023/05/20 08:03:35;;;;;;;13.63;12.83;;;16.10;91.10;;;;;;2613240;54;20134;-71
2023/05/20 08:13:13;;;;;;;14.13;13.43;;;16.20;85.70;;;;;;2607269;39;20833;-71
2023/05/20 08:19:01;;;;;;;13.37;12.73;;;16.40;81.10;;;;;;2609503;46;20451;-72
2023/05/20 08:24:49;;;;;;;14.50;13.33;;;16.70;79.20;;;;;;2609046;54;20290;-71
2023/05/20 08:30:37;;;;;;;14.37;13.47;;;17.10;62.40;;;;;;2608393;54;20967;-72
2023/05/20 08:36:24;;;;;;;13.63;12.83;;;16.40;67.80;;;;;;2611272;54;20130;-70
2023/05/20 08:42:12;;;;;;;13.50;12.90;;;16.30;71.20;;;;;;2611786;54;20134;-71
2023/05/20 08:48:00;;;;;;;12.50;12.00;;;16.70;66.80;;;;;;2612147;54;20150;-72
2023/05/20 08:53:48;;;;;;;15.00;13.80;;;17.10;62.80;;;;;;2611954;54;20396;-72
2023/05/20 08:59:36;;;;;;;11.73;11.33;;;16.90;63.90;;;;;;2612837;54;20652;-73
2023/05/20 09:05:24;;;;;;;14.10;13.30;;;17.70;59.10;;;;;;2612390;54;21210;-71
2023/05/20 09:11:24;;;;;;;15.10;14.30;;;16.90;59.30;;;;;;2606865;54;20922;-72
2023/05/20 09:17:12;;;;;;;13.30;12.70;;;17.40;60.50;;;;;;2602147;54;20259;-71
2023/05/20 09:23:06;;;;;;;12.27;11.70;;;16.90;59.70;;;;;;2604517;54;20488;-70
2023/05/20 09:28:56;;;;;;;13.60;12.90;;;16.80;59.80;;;;;;2610604;54;20942;-72
2023/05/20 09:34:46;;;;;;;13.03;12.43;;;16.80;69.00;;;;;;2611150;54;20512;-72
2023/05/20 09:40:36;;;;;;;12.67;12.10;;;17.00;69.70;;;;;;2610580;54;20394;-71
2023/05/20 09:46:24;;;;;;;14.37;13.57;;;16.70;65.70;;;;;;2606332;54;20379;-74
2023/05/20 09:52:14;;;;;;;14.93;13.73;;;16.80;66.20;;;;;;2609519;54;20387;-71
2023/05/20 09:58:02;;;;;;;14.50;13.83;;;16.60;70.90;;;;;;2610777;54;20394;-72
2023/05/20 10:03:51;;;;;;;12.87;12.20;;;16.70;71.20;;;;;;2612428;46;20402;-73
2023/05/20 10:19:48;;;;;;;14.70;13.77;;;16.60;73.20;;;;;;2611453;46;20442;-70
2023/05/20 10:25:36;;;;;;;13.20;12.10;;;17.30;73.20;;;;;;2608099;54;20981;-71
2023/05/20 10:31:24;;;;;;;11.77;11.27;;;17.50;65.10;;;;;;2610791;39;20500;-71
2023/05/20 10:43:45;;;;;;;13.87;13.17;;;17.00;70.60;;;;;;2611759;54;20438;-72
2023/05/20 10:49:34;;;;;;;13.03;12.43;;;17.10;74.30;;;;;;2612890;54;20249;-71
2023/05/20 10:55:22;;;;;;;12.67;12.10;;;17.70;70.00;;;;;;2612169;54;20538;-72
2023/05/20 11:01:10;;;;;;;14.17;13.40;;;18.10;64.30;;;;;;2613685;54;20261;-71
2023/05/20 11:06:58;;;;;;;12.10;11.60;;;18.30;58.70;;;;;;2614321;54;20358;-72
2023/05/20 11:12:48;;;;;;;12.80;12.30;;;18.40;56.20;;;;;;2609222;54;20151;-72
2023/05/20 11:18:36;;;;;;;13.03;12.40;;;18.40;57.50;;;;;;2614326;54;20428;-71
2023/05/20 11:24:26;;;;;;;12.03;11.63;;;19.20;56.10;;;;;;2613350;54;20253;-71
2023/05/20 11:30:15;;;;;;;11.77;11.37;;;18.80;46.00;;;;;;2611663;54;20430;-70
2023/05/20 11:36:03;;;;;;;16.40;15.53;;;19.40;47.80;;;;;;2611441;54;20426;-71
2023/05/20 11:41:51;;;;;;;15.10;13.60;;;20.40;43.00;;;;;;2613399;54;20387;-71
2023/05/20 11:47:38;;;;;;;15.30;14.33;;;20.60;37.90;;;;;;2613391;54;20660;-72
2023/05/20 11:53:26;;;;;;;14.07;13.17;;;21.00;33.90;;;;;;2612395;54;20162;-71
2023/05/20 11:59:14;;;;;;;14.20;13.57;;;20.70;29.20;;;;;;2612312;54;20118;-71
2023/05/20 12:05:01;;;;;;;14.67;14.00;;;21.40;27.40;;;;;;2613403;54;20123;-72
2023/05/20 12:10:49;;;;;;;15.87;14.87;;;21.10;26.70;;;;;;2613308;54;20245;-72
2023/05/20 12:16:37;;;;;;;13.80;13.17;;;21.00;27.10;;;;;;2613774;54;20127;-72
2023/05/20 12:22:25;;;;;;;14.70;14.00;;;21.20;26.20;;;;;;2613921;54;20130;-74
2023/05/20 12:28:12;;;;;;;14.40;13.80;;;21.50;25.10;;;;;;2613458;54;20239;-72
2023/05/20 12:34:00;;;;;;;13.80;13.23;;;20.90;23.70;;;;;;2613088;54;20165;-73
2023/05/20 12:39:47;;;;;;;14.80;14.20;;;21.30;24.10;;;;;;2613093;54;20138;-73
2023/05/20 12:45:35;;;;;;;15.90;14.93;;;21.00;25.50;;;;;;2614350;54;20158;-70
2023/05/20 12:51:23;;;;;;;14.77;14.17;;;20.90;26.50;;;;;;2613133;54;20131;-71
2023/05/20 12:57:11;;;;;;;15.00;14.30;;;20.50;24.30;;;;;;2612256;54;20182;-71
2023/05/20 13:02:59;;;;;;;13.30;12.70;;;20.20;26.60;;;;;;2613323;54;20200;-69
2023/05/20 13:08:46;;;;;;;14.90;14.20;;;20.90;26.30;;;;;;2613421;54;20154;-70
2023/05/20 13:14:34;;;;;;;15.33;14.27;;;20.80;25.50;;;;;;2612235;54;20142;-70
2023/05/20 13:20:22;;;;;;;14.23;13.53;;;20.60;25.10;;;;;;2612865;54;20135;-71
2023/05/20 13:26:10;;;;;;;14.60;14.00;;;20.60;25.20;;;;;;2613277;54;20135;-70
2023/05/20 13:31:58;;;;;;;12.80;12.40;;;20.40;25.10;;;;;;2613151;54;20162;-71
2023/05/20 13:37:46;;;;;;;12.73;12.23;;;20.00;26.40;;;;;;2611170;54;20123;-71
2023/05/20 13:43:33;;;;;;;13.63;12.97;;;21.00;27.10;;;;;;2612944;54;20628;-71
2023/05/20 13:49:21;;;;;;;12.70;12.20;;;21.00;23.00;;;;;;2614277;54;20150;-70
2023/05/20 13:52:24;;;;;;;14.00;13.50;;;21.10;22.20;;;;;;2612790;47;20407;-71
2023/05/20 13:54:50;;;;;;;15.37;14.57;;;21.10;22.40;;;;;;2613327;54;20173;-71
2023/05/20 14:00:38;;;;;;;14.33;13.83;;;21.10;22.20;;;;;;2614148;54;20679;-71
2023/05/20 14:06:28;;;;;;;13.60;13.10;;;20.70;23.00;;;;;;2614573;54;20170;-70
2023/05/20 14:15:38;;;;;;;14.20;13.60;;;19.90;24.00;;;;;;2611760;54;20956;-71
2023/05/20 14:21:25;;;;;;;14.10;13.40;;;19.90;25.30;;;;;;2613601;54;20177;-71
2023/05/20 14:27:13;;;;;;;14.40;13.80;;;19.60;26.20;;;;;;2614273;54;20598;-71
2023/05/20 14:33:01;;;;;;;14.30;13.60;;;19.40;26.50;;;;;;2613816;54;20415;-71
2023/05/20 14:38:49;;;;;;;13.50;13.00;;;19.40;27.70;;;;;;2613731;54;20567;-71
2023/05/20 14:44:36;;;;;;;12.20;11.80;;;19.30;27.40;;;;;;2614100;46;20187;-71
2023/05/20 14:50:24;;;;;;;15.23;14.53;;;19.80;26.80;;;;;;2612875;54;20161;-70
2023/05/20 14:56:12;;;;;;;12.77;12.37;;;20.20;26.00;;;;;;2613816;54;20125;-72
2023/05/20 15:01:59;;;;;;;12.60;12.10;;;19.70;26.20;;;;;;2614032;54;20154;-71
2023/05/20 15:07:47;;;;;;;15.47;14.70;;;19.50;28.40;;;;;;2613820;54;20504;-71
2023/05/20 15:10:58;;;;;;;12.03;11.63;;;19.30;29.50;;;;;;2613402;54;20950;-71
2023/05/20 15:13:23;;;;;;;13.47;12.90;;;19.20;29.50;;;;;;2613391;54;20154;-72
2023/05/20 15:19:12;;;;;;;13.80;13.00;;;20.10;29.20;;;;;;2613611;39;20653;-70
2023/05/20 15:24:59;;;;;;;13.07;12.57;;;20.30;25.00;;;;;;2614039;54;20503;-69
2023/05/20 15:30:52;;;;;;;13.80;13.00;;;20.20;24.00;;;;;;2614640;47;20149;-70
2023/05/20 15:36:40;;;;;;;12.90;12.40;;;19.40;28.50;;;;;;2614551;54;20500;-70
2023/05/20 15:42:28;;;;;;;15.73;14.70;;;19.00;29.40;;;;;;2615084;46;20155;-72
2023/05/20 15:48:15;;;;;;;16.50;15.53;;;19.20;30.00;;;;;;2614494;54;20219;-71
2023/05/20 15:54:03;;;;;;;13.13;12.63;;;19.20;30.50;;;;;;2614660;54;20162;-70
2023/05/20 15:59:51;;;;;;;17.57;16.53;;;19.00;31.80;;;;;;2614430;54;20246;-70
2023/05/20 16:05:38;;;;;;;14.07;13.47;;;18.60;34.30;;;;;;2613407;54;20126;-70
2023/05/20 16:15:25;;;;;;;15.40;14.60;;;18.30;38.20;;;;;;2613657;54;20419;-71
2023/05/20 16:21:13;;;;;;;12.90;12.40;;;18.20;41.50;;;;;;2614735;39;20765;-70
2023/05/20 16:27:00;;;;;;;12.57;12.17;;;18.00;43.60;;;;;;2614446;54;20169;-70
2023/05/20 16:32:51;;;;;;;15.13;14.43;;;18.00;46.00;;;;;;2614642;46;20153;-71
2023/05/20 16:38:38;;;;;;;13.33;12.70;;;18.00;47.80;;;;;;2613337;54;20382;-70
2023/05/20 16:44:26;;;;;;;14.33;13.63;;;17.90;49.30;;;;;;2614758;54;20153;-70
2023/05/20 16:50:14;;;;;;;12.97;12.27;;;17.90;50.60;;;;;;2614182;54;20134;-71
2023/05/20 16:56:02;;;;;;;11.20;10.70;;;17.80;53.10;;;;;;2613244;39;20238;-70
2023/05/20 17:01:50;;;;;;;11.23;10.83;;;17.90;53.00;;;;;;2613929;54;20395;-70
2023/05/20 17:07:38;;;;;;;14.00;13.30;;;17.90;53.50;;;;;;2614236;54;20683;-70
2023/05/20 17:10:58;;;;;;;11.73;11.33;;;17.70;55.00;;;;;;2613774;54;20574;-70
2023/05/20 17:13:23;;;;;;;11.50;11.10;;;17.80;55.80;;;;;;2614338;54;20515;-71
2023/05/20 17:19:11;;;;;;;11.57;11.17;;;17.80;55.20;;;;;;2614162;54;20671;-70
2023/05/20 17:24:59;;;;;;;11.60;11.20;;;17.70;55.90;;;;;;2614643;54;20223;-70
2023/05/20 17:30:47;;;;;;;12.37;11.83;;;17.60;56.30;;;;;;2614591;54;20259;-71
2023/05/20 17:36:35;;;;;;;14.23;13.30;;;17.60;58.40;;;;;;2613162;54;20270;-71
2023/05/20 17:42:23;;;;;;;10.80;10.37;;;17.50;61.50;;;;;;2613891;54;20133;-70
2023/05/20 17:48:11;;;;;;;13.23;12.33;;;17.40;64.20;;;;;;2614122;54;20127;-71
2023/05/20 17:54:01;;;;;;;11.73;11.30;;;17.30;63.80;;;;;;2614398;54;20438;-70
2023/05/20 17:59:50;;;;;;;12.43;11.93;;;17.40;67.80;;;;;;2613932;39;20801;-71
2023/05/20 18:05:38;;;;;;;11.80;11.40;;;17.40;69.10;;;;;;2614120;39;20780;-71
2023/05/20 18:15:28;;;;;;;13.37;12.67;;;17.30;70.70;;;;;;2613854;54;20423;-71
2023/05/20 18:21:15;;;;;;;11.77;11.37;;;17.20;76.40;;;;;;2614178;39;20454;-71
2023/05/20 18:27:03;;;;;;;12.00;11.60;;;17.30;79.00;;;;;;2614502;39;20599;-71
2023/05/20 18:32:51;;;;;;;13.97;13.10;;;17.20;85.40;;;;;;2614366;54;20137;-70
2023/05/20 18:38:40;;;;;;;10.90;10.50;;;17.20;88.60;;;;;;2614174;54;20407;-72
2023/05/20 18:44:27;;;;;;;11.37;10.97;;;17.10;92.00;;;;;;2614183;46;20403;-71
2023/05/20 18:50:15;;;;;;;11.23;10.83;;;17.00;93.90;;;;;;2614009;54;20158;-71
2023/05/20 18:56:04;;;;;;;10.23;9.93;;;16.90;98.20;;;;;;2614908;31;20626;-71
2023/05/20 19:01:52;;;;;;;12.33;11.83;;;16.70;99.90;;;;;;2614753;54;20519;-71
2023/05/20 19:07:39;;;;;;;12.10;11.50;;;16.60;99.90;;;;;;2614585;54;20135;-72
2023/05/20 19:13:22;;;;;;;12.13;11.43;;;16.40;99.90;;;;;;2615246;54;20449;-71
2023/05/20 19:19:09;;;;;;;10.20;9.90;;;16.30;99.90;;;;;;2615169;54;20137;-71
2023/05/20 19:24:57;;;;;;;10.13;9.73;;;16.20;99.90;;;;;;2614847;54;20178;-70
2023/05/20 19:30:45;;;;;;;12.23;11.60;;;16.20;99.90;;;;;;2614090;54;20265;-71
2023/05/20 19:36:33;;;;;;;10.50;10.00;;;16.20;99.90;;;;;;2614716;54;20929;-71
2023/05/20 19:42:21;;;;;;;13.80;12.90;;;16.10;99.90;;;;;;2614966;54;20139;-71
2023/05/20 19:48:08;;;;;;;10.27;9.83;;;16.10;99.90;;;;;;2614600;54;20143;-70
2023/05/20 19:50:53;;;;;;;9.70;9.40;;;16.00;99.90;;;;;;2613501;54;20420;-71
2023/05/20 19:53:19;;;;;;;10.10;9.60;;;15.90;99.90;;;;;;2614681;54;20163;-70
2023/05/20 19:59:08;;;;;;;8.80;8.50;;;15.90;99.90;;;;;;2614909;39;20827;-70
2023/05/20 20:04:57;;;;;;;8.70;8.40;;;15.80;99.90;;;;;;2614610;54;21223;-70
2023/05/20 20:10:45;;;;;;;13.37;12.50;;;15.60;99.90;;;;;;2613360;54;20395;-71
2023/05/20 20:16:33;;;;;;;8.67;8.37;;;15.40;99.90;;;;;;2613804;54;20238;-71
2023/05/20 20:22:21;;;;;;;8.47;8.17;;;15.20;99.90;;;;;;2613213;54;20992;-71
2023/05/20 20:28:09;;;;;;;8.83;8.43;;;15.00;99.90;;;;;;2614953;39;20509;-70
2023/05/20 20:33:57;;;;;;;8.13;7.80;;;14.80;99.90;;;;;;2614133;54;20427;-72
2023/05/20 20:39:45;;;;;;;9.23;8.73;;;14.80;99.90;;;;;;2614345;54;20126;-71
2023/05/20 20:45:35;;;;;;;7.00;6.80;;;14.50;99.90;;;;;;2614297;54;20178;-70
2023/05/20 20:51:23;;;;;;;6.67;6.47;;;14.20;99.90;;;;;;2614042;54;20507;-70
2023/05/20 20:57:12;;;;;;;6.90;6.70;;;13.90;99.90;;;;;;2614408;54;20672;-70
2023/05/20 21:03:00;;;;;;;7.13;6.83;;;13.70;99.90;;;;;;2612282;54;20988;-71
2023/05/20 21:08:48;;;;;;;6.33;6.13;;;13.60;99.90;;;;;;2612976;54;20133;-71
2023/05/20 21:17:57;;;;;;;6.30;6.10;;;13.70;99.90;;;;;;2613510;54;20987;-70
2023/05/20 21:23:46;;;;;;;4.70;4.50;;;13.60;99.90;;;;;;2610436;54;20231;-71
2023/05/20 21:29:34;;;;;;;4.70;4.50;;;13.50;99.90;;;;;;2612448;54;20466;-71
2023/05/20 21:35:22;;;;;;;5.27;5.07;;;13.40;99.90;;;;;;2611844;54;20392;-71
2023/05/20 21:41:10;;;;;;;4.97;4.77;;;13.30;99.90;;;;;;2610232;54;20154;-71
2023/05/20 21:46:57;;;;;;;6.60;6.20;;;13.30;99.90;;;;;;2609327;46;20246;-71
2023/05/20 21:52:45;;;;;;;4.43;4.23;;;13.30;99.90;;;;;;2609689;54;20119;-71
2023/05/20 21:58:39;;;;;;;4.50;4.30;;;13.20;99.90;;;;;;2609656;54;20170;-71
2023/05/20 22:04:27;;;;;;;4.10;3.97;;;13.20;99.90;;;;;;2603209;54;20439;-71
2023/05/20 22:10:16;;;;;;;4.83;4.63;;;13.20;99.90;;;;;;2608080;46;20475;-71
2023/05/20 22:13:28;;;;;;;5.83;5.63;;;13.30;99.90;;;;;;2608908;54;20546;-71
2023/05/20 22:15:54;;;;;;;5.10;4.90;;;13.30;99.90;;;;;;2607957;54;21053;-72
2023/05/20 22:21:43;;;;;;;35.40;5.70;;;13.50;99.90;;;;;;2608430;54;20141;-71
2023/05/20 22:27:32;;;;;;;4.80;4.60;;;13.60;99.90;;;;;;2613188;54;20395;-71
2023/05/20 22:33:21;;;;;;;6.47;6.17;;;13.50;99.90;;;;;;2612849;54;20391;-72
2023/05/20 22:39:11;;;;;;;4.77;4.57;;;13.50;99.90;;;;;;2611509;54;20390;-71
2023/05/20 22:44:59;;;;;;;4.90;4.70;;;13.40;99.90;;;;;;2610567;54;20431;-71
2023/05/20 22:50:47;;;;;;;4.50;4.30;;;13.30;99.90;;;;;;2610595;54;20236;-71
2023/05/20 22:56:34;;;;;;;4.30;4.10;;;13.30;99.90;;;;;;2609585;39;20532;-72
2023/05/20 23:02:22;;;;;;;4.93;4.70;;;13.20;99.90;;;;;;2610383;54;20130;-71
2023/05/20 23:08:10;;;;;;;3.57;3.47;;;13.20;99.90;;;;;;2610894;54;20151;-71
2023/05/20 23:17:57;;;;;;;6.43;6.03;;;13.10;99.90;;;;;;2610296;54;20374;-71
2023/05/20 23:21:00;;;;;;;4.47;4.27;;;13.10;99.90;;;;;;2609972;54;20423;-72
2023/05/20 23:23:26;;;;;;;3.80;3.70;;;13.10;99.90;;;;;;2610628;39;20885;-71
2023/05/20 23:29:14;;;;;;;3.60;3.50;;;12.90;99.90;;;;;;2610824;39;21236;-71
2023/05/20 23:35:03;;;;;;;4.37;4.17;;;12.90;99.90;;;;;;2611078;54;20158;-71
2023/05/20 23:40:51;;;;;;;3.20;3.10;;;12.80;99.90;;;;;;2609486;54;20939;-71
2023/05/20 23:46:38;;;;;;;3.73;3.60;;;12.80;99.90;;;;;;2610587;39;20515;-72
2023/05/20 23:52:27;;;;;;;5.53;5.33;;;12.50;99.90;;;;;;2611775;54;20139;-71
2023/05/20 23:58:15;;;;;;;4.27;4.00;;;12.20;99.90;;;;;;2609855;54;20435;-72
